Carmel, Indiana
Current Conditions -  °F | °C
As of 8:55 AM on Monday 24 Nov 2014 (Local Time) from KTYQ Reporting Station
Overcast Overcast  
Wind Chill: 39°   Ceiling: 800
Heat Index: 47°   Visibility: 10mi
Dew Point: 42°   Wind: 26mph
Humidity: 83%   Direction: 250°WSW
Pressure: 29.26"   Gusts: 38mph
Location:  39.98°N, 86.11°W
Report Text: KTYQ 241355Z AUTO 25023G33KT 10SM BKN008 BKN012 OVC022 09/06 A2926 RMK AO2 T00850058
Loading
Personal Weather Stations






























Interactive Weather Map New forecast layout! Learn more

10-Day Weather Forecast

Advertisements
Track Severe Weather on mobile